sensor_id;sensor_type;location;lat;lon;timestamp;P1;durP1;ratioP1;P2;durP2;ratioP2
23712;SDS011;12035;49.978;8.298;2024-01-11T00:03:35;22.65;;;11.00;;
23712;SDS011;12035;49.978;8.298;2024-01-11T00:08:32;17.55;;;8.32;;
23712;SDS011;12035;49.978;8.298;2024-01-11T00:13:29;22.42;;;10.40;;
23712;SDS011;12035;49.978;8.298;2024-01-11T00:18:26;22.95;;;10.75;;
23712;SDS011;12035;49.978;8.298;2024-01-11T00:23:25;20.67;;;9.13;;
23712;SDS011;12035;49.978;8.298;2024-01-11T00:28:22;22.20;;;10.10;;
23712;SDS011;12035;49.978;8.298;2024-01-11T00:33:19;21.40;;;9.70;;
23712;SDS011;12035;49.978;8.298;2024-01-11T00:38:16;22.75;;;10.60;;
23712;SDS011;12035;49.978;8.298;2024-01-11T00:43:14;26.05;;;11.75;;
23712;SDS011;12035;49.978;8.298;2024-01-11T00:48:11;22.25;;;9.90;;
23712;SDS011;12035;49.978;8.298;2024-01-11T00:53:08;22.92;;;10.00;;
23712;SDS011;12035;49.978;8.298;2024-01-11T00:58:06;19.42;;;8.88;;
23712;SDS011;12035;49.978;8.298;2024-01-11T01:03:04;19.92;;;9.57;;
23712;SDS011;12035;49.978;8.298;2024-01-11T01:08:02;19.48;;;9.80;;
23712;SDS011;12035;49.978;8.298;2024-01-11T01:12:59;22.80;;;10.68;;
23712;SDS011;12035;49.978;8.298;2024-01-11T01:17:57;19.17;;;9.30;;
23712;SDS011;12035;49.978;8.298;2024-01-11T01:22:56;22.75;;;10.55;;
23712;SDS011;12035;49.978;8.298;2024-01-11T01:27:53;20.52;;;9.90;;
23712;SDS011;12035;49.978;8.298;2024-01-11T01:32:50;22.98;;;10.85;;
23712;SDS011;12035;49.978;8.298;2024-01-11T01:37:47;27.00;;;12.18;;
23712;SDS011;12035;49.978;8.298;2024-01-11T01:42:45;24.60;;;11.90;;
23712;SDS011;12035;49.978;8.298;2024-01-11T01:47:43;22.58;;;10.20;;
23712;SDS011;12035;49.978;8.298;2024-01-11T01:52:40;26.83;;;12.52;;
23712;SDS011;12035;49.978;8.298;2024-01-11T01:57:39;27.30;;;12.10;;
23712;SDS011;12035;49.978;8.298;2024-01-11T02:02:40;27.70;;;12.35;;
23712;SDS011;12035;49.978;8.298;2024-01-11T02:07:39;29.63;;;12.48;;
23712;SDS011;12035;49.978;8.298;2024-01-11T02:12:36;26.10;;;11.88;;
23712;SDS011;12035;49.978;8.298;2024-01-11T02:17:34;28.13;;;11.63;;
23712;SDS011;12035;49.978;8.298;2024-01-11T02:22:34;23.40;;;10.85;;
23712;SDS011;12035;49.978;8.298;2024-01-11T02:27:45;26.63;;;12.05;;
23712;SDS011;12035;49.978;8.298;2024-01-11T02:32:43;28.77;;;12.80;;
23712;SDS011;12035;49.978;8.298;2024-01-11T02:37:41;26.95;;;12.48;;
23712;SDS011;12035;49.978;8.298;2024-01-11T02:42:39;29.13;;;12.02;;
23712;SDS011;12035;49.978;8.298;2024-01-11T02:47:37;30.88;;;13.13;;
23712;SDS011;12035;49.978;8.298;2024-01-11T02:52:34;23.65;;;11.20;;
23712;SDS011;12035;49.978;8.298;2024-01-11T02:57:31;22.05;;;9.82;;
23712;SDS011;12035;49.978;8.298;2024-01-11T03:02:28;19.75;;;8.95;;
23712;SDS011;12035;49.978;8.298;2024-01-11T03:07:27;22.52;;;10.27;;
23712;SDS011;12035;49.978;8.298;2024-01-11T03:12:25;21.05;;;11.00;;
23712;SDS011;12035;49.978;8.298;2024-01-11T03:17:22;23.20;;;11.35;;
23712;SDS011;12035;49.978;8.298;2024-01-11T03:22:19;22.00;;;10.65;;
23712;SDS011;12035;49.978;8.298;2024-01-11T03:27:17;22.98;;;10.45;;
23712;SDS011;12035;49.978;8.298;2024-01-11T03:32:14;20.05;;;8.73;;
23712;SDS011;12035;49.978;8.298;2024-01-11T03:37:11;16.27;;;7.32;;
23712;SDS011;12035;49.978;8.298;2024-01-11T03:42:08;23.88;;;10.85;;
23712;SDS011;12035;49.978;8.298;2024-01-11T03:47:07;19.77;;;9.77;;
23712;SDS011;12035;49.978;8.298;2024-01-11T03:52:04;17.40;;;8.95;;
23712;SDS011;12035;49.978;8.298;2024-01-11T03:57:02;19.38;;;9.48;;
23712;SDS011;12035;49.978;8.298;2024-01-11T04:02:00;21.65;;;10.43;;
23712;SDS011;12035;49.978;8.298;2024-01-11T04:06:58;25.55;;;9.68;;
23712;SDS011;12035;49.978;8.298;2024-01-11T04:11:55;23.65;;;10.60;;
23712;SDS011;12035;49.978;8.298;2024-01-11T04:16:53;20.85;;;9.68;;
23712;SDS011;12035;49.978;8.298;2024-01-11T04:21:50;22.50;;;10.82;;
23712;SDS011;12035;49.978;8.298;2024-01-11T04:26:49;22.15;;;9.70;;
23712;SDS011;12035;49.978;8.298;2024-01-11T04:31:46;21.20;;;10.25;;
23712;SDS011;12035;49.978;8.298;2024-01-11T04:36:43;21.73;;;10.48;;
23712;SDS011;12035;49.978;8.298;2024-01-11T04:41:40;22.17;;;10.15;;
23712;SDS011;12035;49.978;8.298;2024-01-11T04:46:39;22.10;;;10.25;;
23712;SDS011;12035;49.978;8.298;2024-01-11T04:51:36;23.85;;;11.10;;
23712;SDS011;12035;49.978;8.298;2024-01-11T04:56:33;20.25;;;10.48;;
23712;SDS011;12035;49.978;8.298;2024-01-11T05:01:30;25.80;;;10.52;;
23712;SDS011;12035;49.978;8.298;2024-01-11T05:06:28;25.67;;;11.13;;
23712;SDS011;12035;49.978;8.298;2024-01-11T05:11:26;21.80;;;10.38;;
23712;SDS011;12035;49.978;8.298;2024-01-11T05:16:23;21.48;;;10.05;;
23712;SDS011;12035;49.978;8.298;2024-01-11T05:21:22;20.08;;;9.63;;
23712;SDS011;12035;49.978;8.298;2024-01-11T05:26:20;22.05;;;10.30;;
23712;SDS011;12035;49.978;8.298;2024-01-11T05:31:17;25.55;;;10.23;;
23712;SDS011;12035;49.978;8.298;2024-01-11T05:36:15;21.10;;;8.95;;
23712;SDS011;12035;49.978;8.298;2024-01-11T05:41:13;19.67;;;9.98;;
23712;SDS011;12035;49.978;8.298;2024-01-11T05:46:11;23.17;;;10.05;;
23712;SDS011;12035;49.978;8.298;2024-01-11T05:51:08;22.33;;;9.40;;
23712;SDS011;12035;49.978;8.298;2024-01-11T05:56:07;21.45;;;8.70;;
23712;SDS011;12035;49.978;8.298;2024-01-11T06:01:04;18.95;;;8.48;;
23712;SDS011;12035;49.978;8.298;2024-01-11T06:06:03;21.63;;;9.38;;
23712;SDS011;12035;49.978;8.298;2024-01-11T06:11:00;21.35;;;10.13;;
23712;SDS011;12035;49.978;8.298;2024-01-11T06:15:59;22.85;;;10.00;;
23712;SDS011;12035;49.978;8.298;2024-01-11T06:20:56;22.02;;;10.30;;
23712;SDS011;12035;49.978;8.298;2024-01-11T06:25:54;20.05;;;9.50;;
23712;SDS011;12035;49.978;8.298;2024-01-11T06:30:51;17.63;;;8.07;;
23712;SDS011;12035;49.978;8.298;2024-01-11T06:35:48;21.42;;;9.55;;
23712;SDS011;12035;49.978;8.298;2024-01-11T06:40:45;27.25;;;9.20;;
23712;SDS011;12035;49.978;8.298;2024-01-11T06:45:44;17.25;;;8.40;;
23712;SDS011;12035;49.978;8.298;2024-01-11T06:50:41;24.27;;;11.93;;
23712;SDS011;12035;49.978;8.298;2024-01-11T06:55:38;25.85;;;12.07;;
23712;SDS011;12035;49.978;8.298;2024-01-11T07:00:36;22.65;;;11.27;;
23712;SDS011;12035;49.978;8.298;2024-01-11T07:05:39;29.25;;;12.40;;
23712;SDS011;12035;49.978;8.298;2024-01-11T07:10:36;25.60;;;12.05;;
23712;SDS011;12035;49.978;8.298;2024-01-11T07:15:33;30.50;;;14.35;;
23712;SDS011;12035;49.978;8.298;2024-01-11T07:20:30;22.65;;;11.57;;
23712;SDS011;12035;49.978;8.298;2024-01-11T07:25:29;25.73;;;11.75;;
23712;SDS011;12035;49.978;8.298;2024-01-11T07:30:26;24.60;;;11.85;;
23712;SDS011;12035;49.978;8.298;2024-01-11T07:35:23;26.17;;;11.98;;
23712;SDS011;12035;49.978;8.298;2024-01-11T07:40:20;25.73;;;10.88;;
23712;SDS011;12035;49.978;8.298;2024-01-11T07:45:18;23.65;;;11.60;;
23712;SDS011;12035;49.978;8.298;2024-01-11T07:50:15;30.52;;;13.15;;
23712;SDS011;12035;49.978;8.298;2024-01-11T07:55:13;27.98;;;12.05;;
23712;SDS011;12035;49.978;8.298;2024-01-11T08:00:11;29.20;;;14.10;;
23712;SDS011;12035;49.978;8.298;2024-01-11T08:05:11;29.88;;;13.60;;
23712;SDS011;12035;49.978;8.298;2024-01-11T08:10:08;29.45;;;14.00;;
23712;SDS011;12035;49.978;8.298;2024-01-11T08:15:05;27.77;;;12.82;;
23712;SDS011;12035;49.978;8.298;2024-01-11T08:20:07;28.35;;;12.05;;
23712;SDS011;12035;49.978;8.298;2024-01-11T08:25:07;28.38;;;13.02;;
23712;SDS011;12035;49.978;8.298;2024-01-11T08:30:07;38.15;;;14.63;;
23712;SDS011;12035;49.978;8.298;2024-01-11T08:35:04;33.55;;;14.35;;
23712;SDS011;12035;49.978;8.298;2024-01-11T08:40:08;26.83;;;12.93;;
23712;SDS011;12035;49.978;8.298;2024-01-11T08:45:06;31.77;;;14.98;;
23712;SDS011;12035;49.978;8.298;2024-01-11T08:50:04;31.90;;;14.00;;
23712;SDS011;12035;49.978;8.298;2024-01-11T08:55:02;31.70;;;14.63;;
23712;SDS011;12035;49.978;8.298;2024-01-11T09:00:02;29.95;;;14.80;;
23712;SDS011;12035;49.978;8.298;2024-01-11T09:05:01;35.03;;;15.02;;
23712;SDS011;12035;49.978;8.298;2024-01-11T09:10:00;28.45;;;13.65;;
23712;SDS011;12035;49.978;8.298;2024-01-11T09:14:58;27.92;;;14.07;;
23712;SDS011;12035;49.978;8.298;2024-01-11T09:19:55;39.17;;;17.13;;
23712;SDS011;12035;49.978;8.298;2024-01-11T09:24:52;43.78;;;18.67;;
23712;SDS011;12035;49.978;8.298;2024-01-11T09:29:49;37.45;;;17.30;;
23712;SDS011;12035;49.978;8.298;2024-01-11T09:34:48;31.90;;;16.27;;
23712;SDS011;12035;49.978;8.298;2024-01-11T09:39:45;33.67;;;17.25;;
23712;SDS011;12035;49.978;8.298;2024-01-11T09:44:42;28.95;;;13.27;;
23712;SDS011;12035;49.978;8.298;2024-01-11T09:49:40;31.25;;;14.95;;
23712;SDS011;12035;49.978;8.298;2024-01-11T09:54:40;33.88;;;15.20;;
23712;SDS011;12035;49.978;8.298;2024-01-11T09:59:37;36.53;;;17.77;;
23712;SDS011;12035;49.978;8.298;2024-01-11T10:04:35;38.55;;;17.60;;
23712;SDS011;12035;49.978;8.298;2024-01-11T10:09:32;33.33;;;16.10;;
23712;SDS011;12035;49.978;8.298;2024-01-11T10:14:31;36.85;;;16.52;;
23712;SDS011;12035;49.978;8.298;2024-01-11T10:19:28;37.92;;;16.35;;
23712;SDS011;12035;49.978;8.298;2024-01-11T10:24:25;37.75;;;18.95;;
23712;SDS011;12035;49.978;8.298;2024-01-11T10:29:26;40.67;;;18.13;;
23712;SDS011;12035;49.978;8.298;2024-01-11T10:34:27;36.95;;;16.35;;
23712;SDS011;12035;49.978;8.298;2024-01-11T10:39:25;35.50;;;16.75;;
23712;SDS011;12035;49.978;8.298;2024-01-11T10:44:23;31.42;;;15.40;;
23712;SDS011;12035;49.978;8.298;2024-01-11T10:49:29;32.30;;;14.88;;
23712;SDS011;12035;49.978;8.298;2024-01-11T10:54:30;36.97;;;16.80;;
23712;SDS011;12035;49.978;8.298;2024-01-11T10:59:31;27.25;;;13.93;;
23712;SDS011;12035;49.978;8.298;2024-01-11T11:04:32;35.25;;;14.57;;
23712;SDS011;12035;49.978;8.298;2024-01-11T11:09:30;26.00;;;14.13;;
23712;SDS011;12035;49.978;8.298;2024-01-11T11:14:30;32.30;;;13.98;;
23712;SDS011;12035;49.978;8.298;2024-01-11T11:19:32;26.73;;;13.68;;
23712;SDS011;12035;49.978;8.298;2024-01-11T11:24:29;29.42;;;14.68;;
23712;SDS011;12035;49.978;8.298;2024-01-11T11:29:26;33.47;;;17.42;;
23712;SDS011;12035;49.978;8.298;2024-01-11T11:39:41;36.20;;;18.20;;
23712;SDS011;12035;49.978;8.298;2024-01-11T11:44:47;33.75;;;16.67;;
23712;SDS011;12035;49.978;8.298;2024-01-11T11:49:58;36.35;;;17.98;;
23712;SDS011;12035;49.978;8.298;2024-01-11T11:55:03;31.42;;;15.18;;
23712;SDS011;12035;49.978;8.298;2024-01-11T12:00:03;31.65;;;16.77;;
23712;SDS011;12035;49.978;8.298;2024-01-11T12:05:04;28.92;;;14.07;;
23712;SDS011;12035;49.978;8.298;2024-01-11T12:10:02;25.98;;;13.07;;
23712;SDS011;12035;49.978;8.298;2024-01-11T12:15:04;30.42;;;14.82;;
23712;SDS011;12035;49.978;8.298;2024-01-11T12:20:12;29.85;;;15.00;;
23712;SDS011;12035;49.978;8.298;2024-01-11T12:25:11;29.25;;;15.48;;
23712;SDS011;12035;49.978;8.298;2024-01-11T12:30:08;30.80;;;15.85;;
23712;SDS011;12035;49.978;8.298;2024-01-11T12:35:13;35.30;;;18.42;;
23712;SDS011;12035;49.978;8.298;2024-01-11T12:40:12;36.13;;;16.23;;
23712;SDS011;12035;49.978;8.298;2024-01-11T12:45:12;31.95;;;17.13;;
23712;SDS011;12035;49.978;8.298;2024-01-11T12:50:10;32.65;;;16.83;;
23712;SDS011;12035;49.978;8.298;2024-01-11T12:55:17;33.63;;;18.08;;
23712;SDS011;12035;49.978;8.298;2024-01-11T13:00:15;29.07;;;15.90;;
23712;SDS011;12035;49.978;8.298;2024-01-11T13:05:13;31.92;;;16.42;;
23712;SDS011;12035;49.978;8.298;2024-01-11T13:10:13;28.13;;;14.30;;
23712;SDS011;12035;49.978;8.298;2024-01-11T13:15:12;27.38;;;14.43;;
23712;SDS011;12035;49.978;8.298;2024-01-11T13:20:10;27.30;;;14.85;;
23712;SDS011;12035;49.978;8.298;2024-01-11T13:25:08;29.83;;;14.82;;
23712;SDS011;12035;49.978;8.298;2024-01-11T13:30:09;32.17;;;16.95;;
23712;SDS011;12035;49.978;8.298;2024-01-11T13:35:09;30.17;;;14.77;;
23712;SDS011;12035;49.978;8.298;2024-01-11T13:40:07;28.90;;;14.30;;
23712;SDS011;12035;49.978;8.298;2024-01-11T13:45:07;30.35;;;15.30;;
23712;SDS011;12035;49.978;8.298;2024-01-11T13:50:06;26.83;;;14.45;;
23712;SDS011;12035;49.978;8.298;2024-01-11T13:55:04;28.83;;;15.10;;
23712;SDS011;12035;49.978;8.298;2024-01-11T14:00:04;29.83;;;15.95;;
23712;SDS011;12035;49.978;8.298;2024-01-11T14:05:08;30.20;;;14.77;;
23712;SDS011;12035;49.978;8.298;2024-01-11T14:10:08;28.27;;;14.50;;
23712;SDS011;12035;49.978;8.298;2024-01-11T14:15:08;26.33;;;14.32;;
23712;SDS011;12035;49.978;8.298;2024-01-11T14:20:09;30.27;;;16.33;;
23712;SDS011;12035;49.978;8.298;2024-01-11T14:25:08;39.90;;;21.77;;
23712;SDS011;12035;49.978;8.298;2024-01-11T14:30:07;29.67;;;16.38;;
23712;SDS011;12035;49.978;8.298;2024-01-11T14:35:06;25.48;;;13.35;;
23712;SDS011;12035;49.978;8.298;2024-01-11T14:40:06;27.40;;;13.57;;
23712;SDS011;12035;49.978;8.298;2024-01-11T14:45:05;25.50;;;13.20;;
23712;SDS011;12035;49.978;8.298;2024-01-11T14:50:03;29.08;;;14.38;;
23712;SDS011;12035;49.978;8.298;2024-01-11T14:55:06;27.17;;;13.82;;
23712;SDS011;12035;49.978;8.298;2024-01-11T15:00:05;27.40;;;14.52;;
23712;SDS011;12035;49.978;8.298;2024-01-11T15:05:05;27.92;;;13.70;;
23712;SDS011;12035;49.978;8.298;2024-01-11T15:10:03;24.77;;;11.73;;
23712;SDS011;12035;49.978;8.298;2024-01-11T15:15:02;27.85;;;14.00;;
23712;SDS011;12035;49.978;8.298;2024-01-11T15:20:01;28.55;;;13.07;;
23712;SDS011;12035;49.978;8.298;2024-01-11T15:24:59;29.88;;;15.20;;
23712;SDS011;12035;49.978;8.298;2024-01-11T15:29:58;30.08;;;13.82;;
23712;SDS011;12035;49.978;8.298;2024-01-11T15:34:54;33.15;;;14.90;;
23712;SDS011;12035;49.978;8.298;2024-01-11T15:39:51;27.83;;;13.90;;
23712;SDS011;12035;49.978;8.298;2024-01-11T15:44:49;27.55;;;13.55;;
23712;SDS011;12035;49.978;8.298;2024-01-11T15:49:47;25.73;;;12.30;;
23712;SDS011;12035;49.978;8.298;2024-01-11T15:54:44;28.83;;;12.95;;
23712;SDS011;12035;49.978;8.298;2024-01-11T15:59:42;25.30;;;12.75;;
23712;SDS011;12035;49.978;8.298;2024-01-11T16:04:39;30.50;;;14.32;;
23712;SDS011;12035;49.978;8.298;2024-01-11T16:09:39;30.75;;;14.70;;
23712;SDS011;12035;49.978;8.298;2024-01-11T16:14:36;25.83;;;12.27;;
23712;SDS011;12035;49.978;8.298;2024-01-11T16:19:36;28.20;;;13.73;;
23712;SDS011;12035;49.978;8.298;2024-01-11T16:24:33;29.95;;;13.13;;
23712;SDS011;12035;49.978;8.298;2024-01-11T16:29:31;25.38;;;12.82;;
23712;SDS011;12035;49.978;8.298;2024-01-11T16:34:28;25.33;;;12.88;;
23712;SDS011;12035;49.978;8.298;2024-01-11T16:39:25;26.67;;;12.38;;
23712;SDS011;12035;49.978;8.298;2024-01-11T16:44:22;24.88;;;12.80;;
23712;SDS011;12035;49.978;8.298;2024-01-11T16:49:21;26.80;;;13.27;;
23712;SDS011;12035;49.978;8.298;2024-01-11T16:54:18;29.33;;;13.25;;
23712;SDS011;12035;49.978;8.298;2024-01-11T16:59:15;28.33;;;14.05;;
23712;SDS011;12035;49.978;8.298;2024-01-11T17:04:13;25.80;;;13.05;;
23712;SDS011;12035;49.978;8.298;2024-01-11T17:09:11;27.45;;;13.15;;
23712;SDS011;12035;49.978;8.298;2024-01-11T17:14:08;28.95;;;14.95;;
23712;SDS011;12035;49.978;8.298;2024-01-11T17:19:05;25.95;;;13.63;;
23712;SDS011;12035;49.978;8.298;2024-01-11T17:24:02;27.00;;;13.20;;
23712;SDS011;12035;49.978;8.298;2024-01-11T17:29:01;28.85;;;13.70;;
23712;SDS011;12035;49.978;8.298;2024-01-11T17:33:58;32.10;;;14.48;;
23712;SDS011;12035;49.978;8.298;2024-01-11T17:38:55;33.85;;;16.95;;
23712;SDS011;12035;49.978;8.298;2024-01-11T17:43:52;38.95;;;19.33;;
23712;SDS011;12035;49.978;8.298;2024-01-11T17:48:51;33.47;;;17.77;;
23712;SDS011;12035;49.978;8.298;2024-01-11T17:53:48;35.83;;;18.13;;
23712;SDS011;12035;49.978;8.298;2024-01-11T17:58:46;35.15;;;18.70;;
23712;SDS011;12035;49.978;8.298;2024-01-11T18:03:43;34.50;;;17.95;;
23712;SDS011;12035;49.978;8.298;2024-01-11T18:08:41;41.10;;;20.80;;
23712;SDS011;12035;49.978;8.298;2024-01-11T18:13:38;34.38;;;16.95;;
23712;SDS011;12035;49.978;8.298;2024-01-11T18:18:35;33.63;;;17.30;;
23712;SDS011;12035;49.978;8.298;2024-01-11T18:23:32;32.45;;;16.15;;
23712;SDS011;12035;49.978;8.298;2024-01-11T18:28:31;29.88;;;16.15;;
23712;SDS011;12035;49.978;8.298;2024-01-11T18:33:28;31.67;;;14.70;;
23712;SDS011;12035;49.978;8.298;2024-01-11T18:38:25;28.67;;;15.13;;
23712;SDS011;12035;49.978;8.298;2024-01-11T18:43:22;34.83;;;15.43;;
23712;SDS011;12035;49.978;8.298;2024-01-11T18:48:23;28.38;;;14.75;;
23712;SDS011;12035;49.978;8.298;2024-01-11T18:53:21;34.53;;;15.52;;
23712;SDS011;12035;49.978;8.298;2024-01-11T18:58:18;28.08;;;13.15;;
23712;SDS011;12035;49.978;8.298;2024-01-11T19:03:15;29.67;;;15.15;;
23712;SDS011;12035;49.978;8.298;2024-01-11T19:08:16;26.40;;;12.10;;
23712;SDS011;12035;49.978;8.298;2024-01-11T19:13:13;45.20;;;23.80;;
23712;SDS011;12035;49.978;8.298;2024-01-11T19:18:10;30.80;;;15.00;;
23712;SDS011;12035;49.978;8.298;2024-01-11T19:23:07;37.28;;;18.80;;
23712;SDS011;12035;49.978;8.298;2024-01-11T19:28:06;31.40;;;15.00;;
23712;SDS011;12035;49.978;8.298;2024-01-11T19:33:03;26.77;;;13.55;;
23712;SDS011;12035;49.978;8.298;2024-01-11T19:38:01;29.73;;;12.90;;
23712;SDS011;12035;49.978;8.298;2024-01-11T19:42:58;26.95;;;14.60;;
23712;SDS011;12035;49.978;8.298;2024-01-11T19:47:58;22.95;;;12.38;;
23712;SDS011;12035;49.978;8.298;2024-01-11T19:52:55;33.33;;;13.45;;
23712;SDS011;12035;49.978;8.298;2024-01-11T19:57:52;29.88;;;14.60;;
23712;SDS011;12035;49.978;8.298;2024-01-11T20:02:51;27.20;;;13.88;;
23712;SDS011;12035;49.978;8.298;2024-01-11T20:07:50;28.40;;;14.02;;
23712;SDS011;12035;49.978;8.298;2024-01-11T20:12:47;20.00;;;9.90;;
23712;SDS011;12035;49.978;8.298;2024-01-11T20:17:45;23.27;;;11.82;;
23712;SDS011;12035;49.978;8.298;2024-01-11T20:22:44;27.73;;;13.23;;
23712;SDS011;12035;49.978;8.298;2024-01-11T20:27:43;22.80;;;11.82;;
23712;SDS011;12035;49.978;8.298;2024-01-11T20:32:40;31.45;;;13.23;;
23712;SDS011;12035;49.978;8.298;2024-01-11T20:37:38;43.53;;;19.23;;
23712;SDS011;12035;49.978;8.298;2024-01-11T20:42:35;37.92;;;17.10;;
23712;SDS011;12035;49.978;8.298;2024-01-11T20:47:35;29.33;;;13.32;;
23712;SDS011;12035;49.978;8.298;2024-01-11T20:52:33;27.88;;;12.80;;
23712;SDS011;12035;49.978;8.298;2024-01-11T20:57:30;33.10;;;16.08;;
23712;SDS011;12035;49.978;8.298;2024-01-11T21:02:27;43.15;;;18.45;;
23712;SDS011;12035;49.978;8.298;2024-01-11T21:07:27;28.50;;;12.77;;
23712;SDS011;12035;49.978;8.298;2024-01-11T21:12:24;29.58;;;14.07;;
23712;SDS011;12035;49.978;8.298;2024-01-11T21:17:22;21.15;;;11.02;;
23712;SDS011;12035;49.978;8.298;2024-01-11T21:22:19;22.40;;;12.02;;
23712;SDS011;12035;49.978;8.298;2024-01-11T21:27:19;24.95;;;11.70;;
23712;SDS011;12035;49.978;8.298;2024-01-11T21:32:17;20.05;;;10.63;;
23712;SDS011;12035;49.978;8.298;2024-01-11T21:37:16;22.50;;;11.60;;
23712;SDS011;12035;49.978;8.298;2024-01-11T21:42:13;21.92;;;10.50;;
23712;SDS011;12035;49.978;8.298;2024-01-11T21:47:11;24.85;;;11.90;;
23712;SDS011;12035;49.978;8.298;2024-01-11T21:52:08;23.20;;;12.32;;
23712;SDS011;12035;49.978;8.298;2024-01-11T21:57:05;25.00;;;11.98;;
23712;SDS011;12035;49.978;8.298;2024-01-11T22:02:03;23.17;;;11.38;;
23712;SDS011;12035;49.978;8.298;2024-01-11T22:07:02;22.52;;;10.18;;
23712;SDS011;12035;49.978;8.298;2024-01-11T22:11:59;28.50;;;13.32;;
23712;SDS011;12035;49.978;8.298;2024-01-11T22:16:56;26.13;;;12.55;;
23712;SDS011;12035;49.978;8.298;2024-01-11T22:21:53;26.00;;;11.82;;
23712;SDS011;12035;49.978;8.298;2024-01-11T22:26:51;21.45;;;10.98;;
23712;SDS011;12035;49.978;8.298;2024-01-11T22:31:48;22.85;;;11.48;;
23712;SDS011;12035;49.978;8.298;2024-01-11T22:36:45;21.20;;;10.45;;
23712;SDS011;12035;49.978;8.298;2024-01-11T22:41:42;21.58;;;10.80;;
23712;SDS011;12035;49.978;8.298;2024-01-11T22:46:42;17.65;;;9.10;;
23712;SDS011;12035;49.978;8.298;2024-01-11T22:51:42;19.85;;;8.68;;
23712;SDS011;12035;49.978;8.298;2024-01-11T22:56:39;21.20;;;10.23;;
23712;SDS011;12035;49.978;8.298;2024-01-11T23:01:36;17.90;;;9.02;;
23712;SDS011;12035;49.978;8.298;2024-01-11T23:06:38;21.65;;;10.77;;
23712;SDS011;12035;49.978;8.298;2024-01-11T23:11:38;20.98;;;10.60;;
23712;SDS011;12035;49.978;8.298;2024-01-11T23:16:36;23.27;;;11.20;;
23712;SDS011;12035;49.978;8.298;2024-01-11T23:21:37;21.25;;;10.75;;
23712;SDS011;12035;49.978;8.298;2024-01-11T23:26:34;22.73;;;11.02;;
23712;SDS011;12035;49.978;8.298;2024-01-11T23:31:34;21.35;;;10.40;;
23712;SDS011;12035;49.978;8.298;2024-01-11T23:36:32;21.10;;;10.27;;
23712;SDS011;12035;49.978;8.298;2024-01-11T23:41:32;24.23;;;10.85;;
23712;SDS011;12035;49.978;8.298;2024-01-11T23:46:29;20.73;;;9.63;;
23712;SDS011;12035;49.978;8.298;2024-01-11T23:51:27;19.13;;;8.85;;
23712;SDS011;12035;49.978;8.298;2024-01-11T23:56:24;20.65;;;9.85;;
